Flight Track Log - Related Links

Times and Time Zones

All times are in EDT time to prevent confusion due to time zone crossing. See the N566UA flight status page for this flight to view local times or setup timezone preferences in your user account.

Time Position Orientation Groundspeed Altitude Reporting Facility
EDT Latitude Longitude Course Direction KTS MPH feet Rate Location/Type
Thu 06:25:27 PM 38.8833 -77.4333 270° West 195 224 2,500  Level Potomac TRACON
Thu 06:26:27 PM 38.8167 -77.4667 201° Southwest 240 276 5,000 2,549 Climbing Potomac TRACON
Thu 06:27:00 PM 38.8049 -77.8389 231° Southwest  Level FlightAware Approximate
Thu 06:28:00 PM 38.7935 -77.9572 288° West  Level FlightAware Approximate
Thu 06:28:00 PM 38.8236 -77.5953 274° West 273 314 9,000  Level Washington Center
Thu 06:29:00 PM 38.8287 -78.0982 288° West  Level FlightAware Approximate
Thu 06:29:00 PM 38.8303 -77.7075 274° West 283 326 11,200  Level Washington Center
Thu 06:30:00 PM 38.8500 -78.2421 270° West  Level FlightAware Approximate
Thu 06:30:00 PM 38.8364 -77.8275 274° West 319 367 12,700  Level Washington Center
Thu 06:31:00 PM 38.8425 -77.9450 274° West 351 404 14,800 2,150 Climbing Washington Center
Thu 06:32:00 PM 38.8481 -78.0811 273° West 373 429 17,000 1,900 Climbing Washington Center
Thu 06:33:00 PM 38.8536 -78.2172 273° West 384 442 18,600 1,600 Climbing Washington Center
Thu 06:34:00 PM 38.8522 -78.3667 269° West 403 464 20,200 1,600 Climbing Washington Center
Thu 06:35:00 PM 38.8528 -78.5186 270° West 416 479 21,800 1,550 Climbing Washington Center
Thu 06:36:00 PM 38.8511 -78.6731 269° West 429 494 23,300 1,400 Climbing Washington Center
Thu 06:37:00 PM 38.8489 -78.8356 269° West 446 513 24,600 1,350 Climbing Washington Center
Thu 06:38:00 PM 38.8464 -78.9956 269° West 446 513 26,000 1,250 Climbing Washington Center
Thu 06:39:00 PM 38.8439 -79.1578 269° West 451 519 27,100 1,050 Climbing Washington Center
Thu 06:40:00 PM 38.8389 -79.3203 268° West 463 533 28,100 1,100 Climbing Washington Center
Thu 06:41:00 PM 38.8358 -79.4853 269° West 463 533 29,300 1,200 Climbing Washington Center
Thu 06:42:00 PM 38.8322 -79.6583 269° West 470 541 30,500 1,100 Climbing Washington Center
Thu 06:43:00 PM 38.8306 -79.8236 269° West 476 548 31,500 1,100 Climbing Washington Center
Thu 06:44:00 PM 38.8242 -80.0044 267° West 476 548 32,700 1,030 Climbing Washington Center
Thu 06:45:14 PM 38.8178 -80.1953 268° West 462 532 33,800 882 Climbing Indianapolis Center
Thu 06:46:16 PM 38.8117 -80.3564 267° West 455 524 34,700 581 Climbing Indianapolis Center
Thu 06:47:18 PM 38.8078 -80.5167 268° West 449 517 35,000 145 Climbing Indianapolis Center
Thu 06:48:20 PM 38.8047 -80.6736 269° West 443 510 35,000 242 Level Indianapolis Center
Thu 06:49:22 PM 38.8000 -80.8331 268° West 446 513 35,500 488 Climbing Indianapolis Center
Thu 06:50:23 PM 38.7944 -80.9883 267° West 440 506 36,000 244 Climbing Indianapolis Center
Thu 06:51:25 PM 38.7881 -81.1700 267° West 427 491 36,000  Level Indianapolis Center
Thu 06:52:27 PM 38.7828 -81.3228 268° West 430 495 36,000  Level Indianapolis Center
Thu 06:53:29 PM 38.7761 -81.4825 267° West 428 493 36,000  Level Indianapolis Center
Thu 06:54:30 PM 38.7700 -81.6358 267° West 429 494 36,000  Level Indianapolis Center
Thu 06:55:32 PM 38.7647 -81.8000 268° West 430 495 36,000  Level Indianapolis Center
Thu 06:56:34 PM 38.7583 -81.9506 267° West 426 490 36,000  Level Indianapolis Center
Thu 06:57:36 PM 38.7522 -82.1017 267° West 426 490 36,000  Level Indianapolis Center
Thu 06:58:37 PM 38.7461 -82.2514 267° West 423 487 36,000  Level Indianapolis Center
Thu 06:59:39 PM 38.7408 -82.3986 267° West 416 479 36,000  Level Indianapolis Center
Thu 07:00:40 PM 38.7339 -82.5464 267° West 416 479 36,000  Level Indianapolis Center
Thu 07:01:42 PM 38.7272 -82.6967 267° West 421 484 36,000 -145 Level Indianapolis Center
Thu 07:02:44 PM 38.7211 -82.8439 267° West 416 479 35,700 -976 Descending Indianapolis Center
Thu 07:03:45 PM 38.7156 -83.0225 268° West 417 480 34,000 -829 Descending Indianapolis Center
Thu 07:04:47 PM 38.7075 -83.1728 266° West 423 487 34,000  Level Indianapolis Center
Thu 07:05:48 PM 38.7006 -83.3103 266° West 423 487 34,000  Level Indianapolis Center
Thu 07:06:50 PM 38.6933 -83.4614 267° West 421 484 34,000 -49 Level Indianapolis Center
Thu 07:07:51 PM 38.6853 -83.6364 267° West 417 480 33,900  Descending Indianapolis Center
Thu 07:08:53 PM 38.6767 -83.7864 266° West 419 482 34,000 48 Climbing Indianapolis Center
Thu 07:09:55 PM 38.6692 -83.9339 266° West 413 475 34,000  Level Indianapolis Center
Thu 07:10:56 PM 38.6606 -84.0817 266° West 413 475 34,000 -488 Level Indianapolis Center
Thu 07:11:58 PM 38.6519 -84.2239 266° West 400 460 33,000 -780 Descending Indianapolis Center
Thu 07:12:59 PM 38.6506 -84.3714 269° West 410 472 32,400 -1,377 Descending Indianapolis Center
Thu 07:14:00 PM 38.6603 -84.5178 275° West 410 472 30,200 -1,171 Descending Indianapolis Center
Thu 07:15:02 PM 38.6689 -84.6764 274° West 421 484 30,000 -97 Descending Indianapolis Center
Thu 07:16:04 PM 38.6769 -84.8256 274° West 422 486 30,000  Level Indianapolis Center
Thu 07:17:05 PM 38.6761 -84.9753 270° West 424 488 30,000  Level Indianapolis Center
Thu 07:18:07 PM 38.6772 -85.1247 271° West 420 483 30,000  Level Indianapolis Center
Thu 07:19:08 PM 38.6764 -85.2728 270° West 416 479 30,000  Level Indianapolis Center
Thu 07:20:10 PM 38.6753 -85.4239 270° West 421 484 30,000  Level Indianapolis Center
Thu 07:21:11 PM 38.6753 -85.5786 270° West 431 496 30,000  Level Indianapolis Center
Thu 07:22:13 PM 38.6483 -85.7606 259° West 431 496 30,000  Level Indianapolis Center
Thu 07:23:14 PM 38.6328 -85.9114 263° West 427 491 30,000  Level Indianapolis Center
Thu 07:24:16 PM 38.6150 -86.0600 261° West 422 486 30,000  Level Indianapolis Center
Thu 07:25:17 PM 38.6094 -86.2125 267° West 428 493 30,000  Level Indianapolis Center
Thu 07:26:18 PM 38.6094 -86.3683 270° West 436 502 30,000  Level Indianapolis Center
Thu 07:27:20 PM 38.6086 -86.5247 270° West 439 505 30,000  Level Indianapolis Center
Thu 07:28:21 PM 38.6061 -86.6808 269° West 440 506 30,000  Level Indianapolis Center
Thu 07:29:23 PM 38.6050 -86.8378 270° West 443 510 30,000  Level Indianapolis Center
Thu 07:30:24 PM 38.6039 -86.9892 270° West 432 497 30,000  Level Indianapolis Center
Thu 07:31:25 PM 38.6011 -87.1364 269° West 419 482 30,000 -927 Level Indianapolis Center
Thu 07:32:27 PM 38.5994 -87.3117 269° West 413 475 28,100 -976 Descending Indianapolis Center
Thu 07:33:28 PM 38.5967 -87.4714 269° West 445 512 28,000 -49 Descending Indianapolis Center
Thu 07:34:29 PM 38.5942 -87.6269 269° West 443 510 28,000  Level Indianapolis Center
Thu 07:35:31 PM 38.5900 -87.7811 268° West 437 503 28,000  Level Indianapolis Center
Thu 07:36:32 PM 38.5867 -87.9308 268° West 426 490 28,000  Level Indianapolis Center
Thu 07:37:09 PM 38.5856 -88.0203 269° West 417 480 28,000  Level Kansas City Center
Thu 07:38:09 PM 38.5828 -88.1706 269° West 421 484 28,000  Level Kansas City Center
Thu 07:39:14 PM 38.5794 -88.3214 268° West 422 486 28,000  Level Kansas City Center
Thu 07:40:14 PM 38.5753 -88.4714 268° West 422 486 28,000  Level Kansas City Center
Thu 07:41:15 PM 38.5714 -88.6219 268° West 423 487 28,000  Level Kansas City Center
Thu 07:42:16 PM 38.5681 -88.7947 269° West 425 489 28,000  Level Kansas City Center
Thu 07:43:20 PM 38.5628 -88.9561 268° West 423 487 28,000  Level Kansas City Center
Thu 07:44:20 PM 38.5575 -89.1044 267° West 420 483 28,000  Level Kansas City Center
Thu 07:45:24 PM 38.5528 -89.2639 268° West 417 480 28,000  Level Kansas City Center
Thu 07:46:25 PM 38.5483 -89.4114 268° West 417 480 28,000  Level Kansas City Center
Thu 07:47:28 PM 38.5439 -89.5569 268° West 412 474 28,000  Level Kansas City Center
Thu 07:48:29 PM 38.5389 -89.7022 268° West 411 473 28,000  Level Kansas City Center
Thu 07:49:32 PM 38.5353 -89.8469 268° West 408 470 28,000  Level Kansas City Center
Thu 07:50:33 PM 38.5294 -89.9908 267° West 406 467 28,000  Level Kansas City Center
Thu 07:51:33 PM 38.5231 -90.1367 267° West 408 470 28,000  Level Kansas City Center
Thu 07:52:37 PM 38.5172 -90.2850 267° West 411 473 28,000  Level Kansas City Center
Thu 07:53:39 PM 38.5103 -90.4578 267° West 413 475 28,000  Level Kansas City Center
Thu 07:54:40 PM 38.5047 -90.6058 267° West 413 475 28,000  Level Kansas City Center
Thu 07:55:41 PM 38.4967 -90.7633 266° West 417 480 28,000  Level Kansas City Center
Thu 07:56:44 PM 38.4900 -90.9133 267° West 425 489 28,000  Level Kansas City Center
Thu 07:57:44 PM 38.4831 -91.0622 267° West 421 484 28,000 341 Level Kansas City Center
Thu 07:58:47 PM 38.4761 -91.2128 267° West 426 490 28,700 968 Climbing Kansas City Center
Thu 07:59:48 PM 38.4700 -91.3656 267° West 431 496 30,000 2,112 Climbing Kansas City Center
Thu 08:00:52 PM 38.4617 -91.5358 266° West 422 486 33,100 1,935 Climbing Kansas City Center
Thu 08:01:52 PM 38.4547 -91.6686 266° West 380 437 34,000 439 Climbing Kansas City Center
Thu 08:02:55 PM 38.4469 -91.8047 266° West 381 438 34,000  Level Kansas City Center
Thu 08:03:55 PM 38.4406 -91.9428 267° West 387 445 34,000  Level Kansas City Center
Thu 08:04:57 PM 38.4328 -92.0806 266° West 388 447 34,000  Level Kansas City Center
Thu 08:05:58 PM 38.4250 -92.2178 266° West 388 447 34,000 192 Level Kansas City Center
Thu 08:07:02 PM 38.4172 -92.3558 266° West 390 449 34,400 816 Climbing Kansas City Center
Thu 08:08:03 PM 38.4075 -92.5181 266° West 385 443 35,700 787 Climbing Kansas City Center
Thu 08:09:04 PM 38.3981 -92.6581 265° West 392 451 36,000 145 Climbing Kansas City Center
Thu 08:10:07 PM 38.3894 -92.7942 265° West 389 448 36,000  Level Kansas City Center
Thu 08:11:09 PM 38.3817 -92.9317 266° West 388 447 36,000  Level Kansas City Center
Thu 08:12:10 PM 38.3722 -93.0714 265° West 393 452 36,000  Level Kansas City Center
Thu 08:13:11 PM 38.3642 -93.2111 266° West 395 455 36,000  Level Kansas City Center
Thu 08:14:14 PM 38.3553 -93.3508 265° West 395 455 36,000  Level Kansas City Center
Thu 08:15:16 PM 38.3431 -93.5203 265° West 400 460 36,000  Level Kansas City Center
Thu 08:16:17 PM 38.3336 -93.6625 265° West 402 463 36,000  Level Kansas City Center
Thu 08:17:18 PM 38.3228 -93.8042 264° West 401 461 36,000  Level Kansas City Center
Thu 08:18:21 PM 38.3131 -93.9436 265° West 397 457 36,000  Level Kansas City Center
Thu 08:19:22 PM 38.3031 -94.0814 265° West 393 452 36,000  Level Kansas City Center
Thu 08:20:24 PM 38.2919 -94.2342 265° West 390 449 36,000  Level Kansas City Center
Thu 08:21:25 PM 38.2822 -94.3650 265° West 389 448 36,000  Level Kansas City Center
Thu 08:22:29 PM 38.2717 -94.4950 264° West 387 445 36,000  Level Kansas City Center
Thu 08:23:29 PM 38.2672 -94.6472 268° West 386 444 36,000  Level Kansas City Center
Thu 08:24:31 PM 38.2642 -94.7772 268° West 384 442 36,000  Level Kansas City Center
Thu 08:25:34 PM 38.2583 -94.9308 267° West 386 444 36,000  Level Kansas City Center
Thu 08:26:36 PM 38.2531 -95.0611 267° West 386 444 36,000  Level Kansas City Center
Thu 08:27:36 PM 38.2489 -95.2144 268° West 386 444 36,000  Level Kansas City Center
Thu 08:28:37 PM 38.2436 -95.3475 267° West 388 447 36,000  Level Kansas City Center
Thu 08:29:40 PM 38.2383 -95.4781 267° West 388 447 36,000  Level Kansas City Center
Thu 08:30:42 PM 38.2331 -95.6319 268° West 389 448 36,000  Level Kansas City Center
Thu 08:31:42 PM 38.2278 -95.7631 267° West 387 445 36,000  Level Kansas City Center
Thu 08:32:46 PM 38.2208 -95.9172 267° West 390 449 36,000  Level Kansas City Center
Thu 08:33:47 PM 38.2158 -96.0500 267° West 391 450 36,000  Level Kansas City Center
Thu 08:34:48 PM 38.2106 -96.1842 267° West 395 455 36,000  Level Kansas City Center
Thu 08:35:49 PM 38.2025 -96.3433 266° West 402 463 36,000  Level Kansas City Center
Thu 08:36:53 PM 38.1942 -96.4989 266° West 411 473 36,000  Level Kansas City Center
Thu 08:37:54 PM 38.1817 -96.6456 264° West 417 480 36,000  Level Kansas City Center
Thu 08:38:55 PM 38.1719 -96.7906 265° West 413 475 36,000  Level Kansas City Center
Thu 08:39:56 PM 38.1611 -96.9369 265° West 416 479 36,000  Level Kansas City Center
Thu 08:41:00 PM 38.1492 -97.0822 264° West 415 478 36,000  Level Kansas City Center
Thu 08:42:00 PM 38.1375 -97.2281 264° West 416 479 36,000  Level Kansas City Center
Thu 08:43:01 PM 38.1256 -97.3736 264° West 415 478 36,000  Level Kansas City Center
Thu 08:44:06 PM 38.1119 -97.5328 264° West 412 474 36,000  Level Kansas City Center
Thu 08:45:06 PM 38.0992 -97.6775 264° West 414 476 36,000  Level Kansas City Center
Thu 08:46:07 PM 38.0869 -97.8361 264° West 418 481 36,000  Level Kansas City Center
Thu 08:47:08 PM 38.0744 -97.9836 264° West 420 483 36,000  Level Kansas City Center
Thu 08:48:12 PM 38.0608 -98.1303 263° West 419 482 36,000  Level Kansas City Center
Thu 08:49:12 PM 38.0467 -98.2994 264° West 421 484 36,000  Level Kansas City Center
Thu 08:50:14 PM 38.0336 -98.4464 264° West 422 486 36,000  Level Kansas City Center
Thu 08:51:15 PM 38.0197 -98.5944 263° West 423 487 36,000  Level Kansas City Center
Thu 08:52:18 PM 38.0058 -98.7414 263° West 423 487 36,000  Level Kansas City Center
Thu 08:53:19 PM 37.9917 -98.8889 263° West 423 487 36,000  Level Kansas City Center
Thu 08:54:19 PM 37.9789 -99.0353 264° West 420 483 36,000  Level Kansas City Center
Thu 08:55:23 PM 37.9661 -99.1842 264° West 424 488 36,000  Level Kansas City Center
Thu 08:56:25 PM 37.9514 -99.3328 263° West 425 489 36,000  Level Kansas City Center
Thu 08:57:26 PM 37.9336 -99.4967 262° West 428 493 36,000  Level Kansas City Center
Thu 08:58:27 PM 37.9172 -99.6636 263° West 429 494 36,000  Level Kansas City Center
Thu 08:59:28 PM 37.9031 -99.8064 263° West 428 493 36,000  Level Kansas City Center
Thu 09:00:30 PM 37.8850 -99.9733 262° West 428 493 36,000  Level Kansas City Center
Thu 09:01:33 PM 37.8703 -100.1150 263° West 426 490 36,000  Level Kansas City Center
Thu 09:02:34 PM 37.8531 -100.2808 263° West 427 491 36,000  Level Kansas City Center
Thu 09:03:35 PM 37.8375 -100.4228 262° West 425 489 36,000  Level Kansas City Center
Thu 09:04:39 PM 37.8222 -100.5653 262° West 427 491 36,000  Level Kansas City Center
Thu 09:05:39 PM 37.8036 -100.7314 262° West 429 494 36,000  Level Kansas City Center
Thu 09:06:39 PM 37.7869 -100.8714 261° West 429 494 36,000  Level Kansas City Center
Thu 09:07:43 PM 37.7692 -101.0336 262° West 426 490 36,000  Level Kansas City Center
Thu 09:08:44 PM 37.7533 -101.1742 262° West 426 490 36,000  Level Kansas City Center
Thu 09:09:44 PM 37.7347 -101.3397 262° West 428 493 36,000  Level Kansas City Center
Thu 09:10:48 PM 37.7175 -101.4814 261° West 428 493 36,000  Level Kansas City Center
Thu 09:11:49 PM 37.6992 -101.6472 262° West 429 494 36,000  Level Kansas City Center
Thu 09:12:24 PM 37.6875 -101.7419 261° West 427 491 36,000  Level Denver Center
Thu 09:13:26 PM 37.6706 -101.8858 262° West 433 498 36,000  Level Denver Center
Thu 09:14:27 PM 37.6489 -102.0539 261° West 437 503 36,000  Level Denver Center
Thu 09:15:29 PM 37.6317 -102.1983 261° West 437 503 36,000  Level Denver Center
Thu 09:16:31 PM 37.6150 -102.3442 262° West 440 506 36,000  Level Denver Center
Thu 09:17:33 PM 37.5939 -102.5097 261° West 440 506 36,000  Level Denver Center
Thu 09:18:34 PM 37.5747 -102.6547 261° West 438 504 36,000  Level Denver Center
Thu 09:19:36 PM 37.5539 -102.8253 261° West 441 507 36,000  Level Denver Center
Thu 09:20:38 PM 37.5347 -102.9714 261° West 442 509 36,000  Level Denver Center
Thu 09:21:40 PM 37.5128 -103.1408 261° West 439 505 36,000  Level Denver Center
Thu 09:22:41 PM 37.4933 -103.2856 260° West 437 503 36,000  Level Denver Center
Thu 09:23:43 PM 37.4711 -103.4558 261° West 441 507 36,000  Level Denver Center
Thu 09:24:45 PM 37.4508 -103.6022 260° West 441 507 36,000  Level Denver Center
Thu 09:25:46 PM 37.4317 -103.7506 261° West 445 512 36,000  Level Denver Center
Thu 09:26:48 PM 37.4069 -103.9236 260° West 445 512 36,000  Level Denver Center
Thu 09:27:50 PM 37.3856 -104.0744 260° West 448 516 36,000  Level Denver Center
Thu 09:28:51 PM 37.3644 -104.2247 260° West 451 519 36,000  Level Denver Center
Thu 09:29:53 PM 37.3389 -104.3997 260° West 453 521 36,000  Level Denver Center
Thu 09:30:55 PM 37.3175 -104.5497 260° West 452 520 36,000  Level Denver Center
Thu 09:31:57 PM 37.2922 -104.7231 260° West 451 519 36,000  Level Denver Center
Thu 09:32:58 PM 37.2692 -104.8719 259° West 453 521 36,000  Level Denver Center
Thu 09:34:00 PM 37.2492 -105.0214 261° West 452 520 36,000  Level Denver Center
Thu 09:35:02 PM 37.2236 -105.1861 259° West 434 499 36,000  Level Denver Center
Thu 09:36:04 PM 37.2031 -105.3231 259° West 422 486 36,000  Level Denver Center
Thu 09:37:06 PM 37.1783 -105.4814 259° West 416 479 36,000  Level Denver Center
Thu 09:38:07 PM 37.1583 -105.6172 260° West 414 476 36,000  Level Denver Center
Thu 09:39:09 PM 37.1328 -105.7750 259° West 415 478 36,000  Level Denver Center
Thu 09:40:11 PM 37.1114 -105.9111 259° West 416 479 36,000  Level Denver Center
Thu 09:41:13 PM 37.0878 -106.0725 260° West 419 482 36,000  Level Denver Center
Thu 09:42:14 PM 37.0647 -106.2108 258° West 423 487 36,000  Level Denver Center
Thu 09:43:16 PM 37.0419 -106.3525 259° West 430 495 36,000  Level Denver Center
Thu 09:44:18 PM 37.0178 -106.5139 259° West 426 490 36,000  Level Denver Center
Thu 09:45:20 PM 36.9950 -106.6514 258° West 423 487 36,000  Level Denver Center
Thu 09:46:22 PM 36.9683 -106.8111 258° West 421 484 36,000 341 Level Denver Center
Thu 09:47:23 PM 36.9458 -106.9481 258° West 421 484 36,700 829 Climbing Denver Center
Thu 09:48:25 PM 36.9197 -107.1028 258° West 411 473 37,700 629 Climbing Denver Center
Thu 09:49:27 PM 36.8969 -107.2400 258° West 420 483 38,000 145 Climbing Denver Center
Thu 09:50:29 PM 36.8694 -107.4000 258° West 424 488 38,000  Level Denver Center
Thu 09:51:31 PM 36.8453 -107.5406 258° West 431 496 38,000  Level Denver Center
Thu 09:52:32 PM 36.8211 -107.6833 258° West 439 505 38,000  Level Denver Center
Thu 09:53:34 PM 36.7922 -107.8481 258° West 436 502 38,000  Level Denver Center
Thu 09:54:36 PM 36.7689 -107.9872 258° West 430 495 38,000  Level Denver Center
Thu 09:55:38 PM 36.7392 -108.1481 257° West 428 493 38,000  Level Denver Center
Thu 09:56:40 PM 36.7156 -108.2828 258° West 422 486 38,000  Level Denver Center
Thu 09:57:41 PM 36.6864 -108.4411 257° West 420 483 38,000  Level Denver Center
Thu 09:58:44 PM 36.6603 -108.5769 257° West 421 484 38,000  Level Denver Center
Thu 09:59:46 PM 36.6300 -108.7369 257° West 427 491 38,000  Level Denver Center
Thu 10:00:48 PM 36.6036 -108.8731 256° West 425 489 38,000  Level Denver Center
Thu 10:01:49 PM 36.5731 -109.0339 257° West 429 494 38,000  Level Denver Center
Thu 10:02:51 PM 36.5464 -109.1733 257° West 434 499 38,000  Level Denver Center
Thu 10:03:53 PM 36.5150 -109.3372 257° West 439 505 38,000  Level Denver Center
Thu 10:04:55 PM 36.4881 -109.4772 257° West 438 504 38,000  Level Denver Center
Thu 10:05:57 PM 36.4561 -109.6417 256° West 439 505 38,000  Level Denver Center
Thu 10:06:59 PM 36.4272 -109.7822 256° West 439 505 38,000  Level Denver Center
Thu 10:08:00 PM 36.4003 -109.9231 257° West 440 506 38,000  Level Denver Center
Thu 10:09:02 PM 36.3678 -110.0869 256° West 439 505 38,000  Level Denver Center
Thu 10:10:04 PM 36.3353 -110.2397 255° West 440 506 38,000  Level Denver Center
Thu 10:11:06 PM 36.3067 -110.3867 256° West 441 507 38,000  Level Denver Center
Thu 10:12:08 PM 36.2758 -110.5342 256° West 442 509 38,000  Level Denver Center
Thu 10:13:09 PM 36.2447 -110.6831 256° West 445 512 38,000  Level Denver Center
Thu 10:14:11 PM 36.2125 -110.8331 255° West 449 517 38,000  Level Denver Center
Thu 10:15:13 PM 36.1758 -111.0106 256° West 445 512 38,000  Level Denver Center
Thu 10:16:15 PM 36.1444 -111.1603 255° West 448 516 38,000  Level Denver Center
Thu 10:17:16 PM 36.1075 -111.3081 253° West 449 517 38,000  Level Denver Center
Thu 10:18:18 PM 36.0492 -111.4489 243° Southwest 456 525 38,000  Level Denver Center
Thu 10:19:20 PM 35.9900 -111.5936 243° Southwest 467 537 38,000  Level Denver Center
Thu 10:20:22 PM 35.9317 -111.7353 243° Southwest 466 536 38,000  Level Denver Center
Thu 10:21:23 PM 35.8739 -111.8786 244° Southwest 465 535 38,000  Level Denver Center
Thu 10:21:43 PM 35.8525 -111.9275 242° Southwest 464 534 38,000  Level Los Angeles Center
Thu 10:22:44 PM 35.7953 -112.0661 243° Southwest 458 527 38,000  Level Los Angeles Center
Thu 10:23:46 PM 35.7381 -112.2050 243° Southwest 456 525 38,000  Level Los Angeles Center
Thu 10:24:48 PM 35.6692 -112.3719 243° Southwest 459 528 38,000  Level Los Angeles Center
Thu 10:25:50 PM 35.6128 -112.5097 243° Southwest 454 522 38,000  Level Los Angeles Center
Thu 10:26:52 PM 35.5500 -112.6581 243° Southwest 452 520 38,000  Level Los Angeles Center
Thu 10:27:53 PM 35.4922 -112.7928 242° Southwest 447 514 38,000  Level Los Angeles Center
Thu 10:28:55 PM 35.4339 -112.9347 243° Southwest 458 527 38,000  Level Los Angeles Center
Thu 10:29:57 PM 35.3789 -113.0600 242° Southwest 451 519 38,000  Level Los Angeles Center
Thu 10:30:59 PM 35.3094 -113.2217 242° Southwest 447 514 38,000  Level Los Angeles Center
Thu 10:32:01 PM 35.2583 -113.3442 243° Southwest 456 525 38,000  Level Los Angeles Center
Thu 10:33:03 PM 35.1994 -113.4806 242° Southwest 458 527 38,000  Level Los Angeles Center
Thu 10:34:04 PM 35.1297 -113.6422 242° Southwest 450 518 38,000  Level Los Angeles Center
Thu 10:35:06 PM 35.0711 -113.7781 242° Southwest 454 522 38,000  Level Los Angeles Center
Thu 10:36:08 PM 35.0125 -113.9142 242° Southwest 456 525 38,000  Level Los Angeles Center
Thu 10:37:10 PM 34.9553 -114.0442 242° Southwest 454 522 38,000 -629 Level Los Angeles Center
Thu 10:38:12 PM 34.8833 -114.2064 242° Southwest 452 520 36,700 -2,081 Descending Los Angeles Center
Thu 10:39:14 PM 34.8244 -114.3431 242° Southwest 454 522 33,700 -3,220 Descending Los Angeles Center
Thu 10:40:15 PM 34.7583 -114.4797 240° Southwest 465 535 30,100 -1,805 Descending Los Angeles Center
Thu 10:41:17 PM 34.6606 -114.5925 224° Southwest 478 550 30,000 -97 Descending Los Angeles Center
Thu 10:42:19 PM 34.5728 -114.6939 224° Southwest 480 552 29,900 -339 Descending Los Angeles Center
Thu 10:43:21 PM 34.4569 -114.8247 223° Southwest 475 547 29,300 -780 Descending Los Angeles Center
Thu 10:44:22 PM 34.3625 -114.9325 223° Southwest 468 539 28,300 -683 Descending Los Angeles Center
Thu 10:45:24 PM 34.2678 -115.0389 223° Southwest 467 537 27,900 -194 Descending Los Angeles Center
Thu 10:46:26 PM 34.1722 -115.1458 223° Southwest 467 537 27,900 -435 Level Los Angeles Center
Thu 10:47:28 PM 34.0778 -115.2542 224° Southwest 470 541 27,000 -968 Descending Los Angeles Center
Thu 10:48:30 PM 33.9825 -115.3603 223° Southwest 468 539 25,900 -1,113 Descending Los Angeles Center
Thu 10:49:32 PM 33.8697 -115.4864 223° Southwest 461 531 24,700 -976 Descending Los Angeles Center
Thu 10:50:33 PM 33.7753 -115.5886 222° Southwest 459 528 23,900 -341 Descending Los Angeles Center
Thu 10:51:35 PM 33.6825 -115.6903 222° Southwest 454 522 24,000 48 Climbing Los Angeles Center
Thu 10:52:37 PM 33.6108 -115.7756 225° Southwest 454 522 24,000  Level Los Angeles Center
Thu 10:53:39 PM 33.5261 -115.9242 236° Southwest 453 521 24,000 -532 Level Los Angeles Center
Thu 10:54:41 PM 33.4556 -116.0458 235° Southwest 447 514 22,900 -2,341 Descending Los Angeles Center
Thu 10:55:42 PM 33.3719 -116.1867 235° Southwest 436 502 19,200 -3,610 Descending Los Angeles Center
Thu 10:56:44 PM 33.2869 -116.2767 222° Southwest 419 482 15,500 -3,242 Descending Los Angeles Center
Thu 10:57:46 PM 33.1836 -116.3367 206° Southwest 415 478 12,500 -1,694 Descending Los Angeles Center
Thu 10:58:48 PM 33.0861 -116.3939 206° Southwest 401 461 12,000 -244 Descending Los Angeles Center
Thu 10:59:49 PM 32.9806 -116.4556 206° Southwest 387 445 12,000 -439 Level Los Angeles Center
Thu 11:00:51 PM 32.8911 -116.5111 208° Southwest 364 419 11,100 -919 Descending Los Angeles Center
Thu 11:01:53 PM 32.8225 -116.5800 220° Southwest 315 362 10,100 -1,113 Descending Los Angeles Center
Thu 11:02:55 PM 32.7814 -116.6628 239° Southwest 294 338 8,800 -1,317 Descending Los Angeles Center
Thu 11:03:56 PM 32.7397 -116.7467 239° Southwest 294 338 7,400 -1,024 Descending Los Angeles Center
Thu 11:04:58 PM 32.7031 -116.8275 242° Southwest 285 328 6,700 -919 Descending Los Angeles Center
Thu 11:06:00 PM 32.6819 -116.8992 251° West 238 274 5,500 -1,161 Descending Los Angeles Center
Thu 11:07:02 PM 32.6786 -116.9625 266° West 205 236 4,300 -976 Descending Los Angeles Center
Thu 11:08:03 PM 32.6928 -117.0269 285° West 169 194 3,500 -1,024 Descending Los Angeles Center
Thu 11:09:05 PM 32.7047 -117.0728 287° West 151 174 2,200 -1,258 Descending Los Angeles Center

Login

Don't have an account? Register now (free) for customized features, flight alerts, and more!